Skip to main content.
Our real time weather data display below is updated continuously via our 24/7 live data feed.
 TIME   TEMPERATURE   WINDSPEED   DIRECTION   HUMIDITY   BAROMETER   RAINFALL 
10:05 24.6°C (76.3°F) 5.6 kmh (3.5 mph) NNE 75% 1011.8hPa (29.88 inHg) 0.0mm (0.00 in.)
9:05 23.4°C (74.1 °F) 11.1 kmh (6.9 mph) NNE 86% 1011.6hPa (29.87 inHg) 0.0mm (0.00 in.)
8:05 21.7°C (71.1 °F) 5.6 kmh (3.5 mph) NNW 96% 1011.3hPa (29.86 inHg) 0.0mm (0.00 in.)
7:05 21.3°C (70.3 °F) 3.7 kmh (2.3 mph) NNE 99% 1010.7hPa (29.85 inHg) 0.0mm (0.00 in.)
6:05 21.3°C (70.3 °F) 5.6 kmh (3.5 mph) NNE 100% 1010.2hPa (29.83 inHg) 0.0mm (0.00 in.)
5:05 21.6°C (70.9 °F) 5.6 kmh (3.5 mph) NE 99% 1009.9hPa (29.82 inHg) 0.0mm (0.00 in.)
4:05 21.4°C (70.5 °F) 7.4 kmh (4.6 mph) NNE 98% 1009.8hPa (29.82 inHg) 0.0mm (0.00 in.)
3:05 21.3°C (70.3 °F) 3.7 kmh (2.3 mph) NE 97% 1009.6hPa (29.81 inHg) 0.0mm (0.00 in.)
2:05 20.6°C (69.1 °F) 0.0 kmh (0.0 mph) NE 96% 1009.8hPa (29.82 inHg) 0.0mm (0.00 in.)
1:05 21.6°C (70.9 °F) 0.0 kmh (0.0 mph) NNW 95% 1009.8hPa (29.82 inHg) 0.0mm (0.00 in.)
12:05 21.6°C (70.9 °F) 0.0 kmh (0.0 mph) WSW 94% 1010.1hPa (29.83 inHg) 0.0mm (0.00 in.)
11:05 21.3°C (70.3 °F) 0.0 kmh (0.0 mph) WSW 93% 1010.5hPa (29.84 inHg) 0.0mm (0.00 in.)
10:05 21.4°C (70.5 °F) 3.7 kmh (2.3 mph) W 92% 1010.2hPa (29.83 inHg) 0.0mm (0.00 in.)
9:05 21.3°C (70.3 °F) 7.4 kmh (4.6 mph) N 92% 1010.0hPa (29.83 inHg) 0.0mm (0.00 in.)
7:54 21.6°C (70.9 °F) 11.1 kmh (6.9 mph) N 88% 1010.0hPa (29.83 inHg) 0.0mm (0.00 in.)
6:54 22.1°C (71.8 °F) 5.6 kmh (3.5 mph) N 88% 1009.9hPa (29.82 inHg) 0.0mm (0.00 in.)
5:54 23.2°C (73.8 °F) 14.8 kmh (9.2 mph) N 84% 1010.1hPa (29.83 inHg) 0.0mm (0.00 in.)
4:54 23.2°C (73.8 °F) 16.7 kmh (10.4 mph) N 81% 1010.4hPa (29.84 inHg) 0.0mm (0.00 in.)
3:54 24.1°C (75.4 °F) 7.4 kmh (4.6 mph) N 76% 1010.5hPa (29.84 inHg) 0.0mm (0.00 in.)
2:54 23.3°C (73.9 °F) 9.3 kmh (5.8 mph) N 80% 1010.8hPa (29.85 inHg) 0.0mm (0.00 in.)
1:54 22.9°C (73.2 °F) 29.6 kmh (18.4 mph) N 82% 1011.2hPa (29.86 inHg) 0.0mm (0.00 in.)
12:54 23.3°C (73.9 °F) 13.0 kmh (8.1 mph) N 82% 1011.4hPa (29.87 inHg) 0.0mm (0.00 in.)
11:54 23.3°C (73.9 °F) 14.8 kmh (9.2 mph) N 82% 1011.5hPa (29.87 inHg) 0.0mm (0.00 in.)
10:54 23.3°C (73.9 °F) 24.1 kmh (15.0 mph) N 84% 1011.4hPa (29.87 inHg) 0.0mm (0.00 in.)